Wiscasset, ME

5:31 AM EST on January 28, 2015 (GMT -0500)
Acorn Road | Change Station
CLOSE
Current Station
Personal Weather Station
Location: Wiscasset, ME
Elevation: 144 ft
Nearby Weather Stations

Elev 144 ft 44.00 °N, 69.70 °W | Updated 3 seconds ago

Light Snow
Light Snow
12.9 °F
Feels Like 1 °F
N
8.9
Wind Variable Wind from North
Gusts 13.0 mph

Today
High -- | Low -- °F
--% Chance of Precip.
Yesterday
High -- | Low -- °F
Precip. -- in
7:00 AM 4:43 PM
Waxing Gibbous, 63% visible
Pressure 29.71 in
Visibility 4.0 miles
Clouds Mostly Cloudy 2400 ft
Overcast 6500 ft
Windchill 1 °F
Dew Point 8 °F
Humidity 82%
Rainfall 0.00 in
Snow Depth Not available.
UV 0 out of 12
Pollen .10 out of 12
Air Quality Not available.
Flu Activity Not available.
METAR KIWI 280953Z AUTO 35007G17KT 300V100 4SM -SN BKN024 OVC065 M10/M13 A2970 RMK AO2 SLP060 P0002 T11001133

More Conditions Fewer Conditions

Pressure 29.71 in
Visibility 4.0 miles
Clouds Mostly Cloudy 2400 ft
Overcast 6500 ft
Windchill 1 °F
Dew Point 8 °F
Humidity 82%
Rainfall 0.00 in
Snow Depth Not available.
UV 0 out of 12
Pollen .10 out of 12
Air Quality Not available.
Flu Activity Not available.
METAR KIWI 280953Z AUTO 35007G17KT 300V100 4SM -SN BKN024 OVC065 M10/M13 A2970 RMK AO2 SLP060 P0002 T11001133

More Conditions Fewer Conditions

10-Day Weather Forecast

Almanac

Astronomy

Jan. 28, 2015 Rise Set
Actual Time
Civil Twilight
Nautical Twilight
Astronomical Twilight
Moon
Length of Visible Light
Length of Day
Tomorrow will be .
, % of the Moon is Illuminated

Today's Extremes

State Highs State Lows

Community

WunderPhotos

Upload Photos

1,791,121 photos uploaded!

WunderBlogs® & News

Nearby

Air Quality

  Air Quality AQ Index Pollutant
Not available.

Snow Depth

Station Depth Elevation

Earthquake Activity

City Distance Mag. Time & Date
Minimum magnitude displayed is 2.5.

Coastal Water Temperatures

Place Temperature

Nearby Weather Stations